Wind from 120 at 10 knots

Air temperature 8.0° C
Dewpoint -5.0° C

Last reported at 2014-Apr-24 08:50 UTC.
Time now 2014-Apr-24 11:21 UTC

Location: N 58°14' E 022°31'.
View on Google Maps.

See reports from other nearby stations

Tides Stations Pressure Air Temp Water Temp Dewpoint Dewpoint depression Visibility Wind Speed Wind Dir Waves Ship positions

  
sailing weather and tide predictions

KURESSAARE weather

date/time (UTC)wind fromknots sea level pressurealtimeterstation pressurevisibilityair tempwater tempwave heightnotes
2014-Apr-24 09:50 120 10 8.0
2014-Apr-24 08:50 120 10 8.0
2014-Apr-24 07:50 110 11 8.0
2014-Apr-24 06:50 110 11 7.0
2014-Apr-24 05:50 110 11 7.0
2014-Apr-24 04:50 100 10 5.0
2014-Apr-24 03:50 090 7 4.0
2014-Apr-24 02:50 050 7 5.4-0.0
2014-Apr-24 01:50 040 7 5.4-0.0
2014-Apr-24 00:50 040 6 5.4 1.0
2014-Apr-23 23:50 040 6 5.4 1.0
2014-Apr-23 22:50 030 5 5.4 2.0
2014-Apr-23 21:50 040 6 5.4 3.0
2014-Apr-23 20:50 050 7 5.4 4.0
2014-Apr-23 19:50 040 7 5.4 6.0
2014-Apr-23 18:50 050 10 5.4 7.0
2014-Apr-23 17:50 050 13 5.4 9.0
2014-Apr-23 16:50 040 12 5.411.0
2014-Apr-23 15:50 030 15 11.0
2014-Apr-23 14:50 030 16 12.0
2014-Apr-23 13:50 020 15 12.0
2014-Apr-23 12:50 030 16 13.0
2014-Apr-23 11:50 030 14 12.0
2014-Apr-23 10:50 060 12 12.0
2014-Apr-23 09:50 050 13 11.0
2014-Apr-23 08:50 020 16 11.0
2014-Apr-23 07:50 030 16 10.0
2014-Apr-23 06:50 040 15 9.0
2014-Apr-23 05:50 030 18 8.0
2014-Apr-23 04:50 030 15 8.0
2014-Apr-23 03:50 030 14 7.0
2014-Apr-23 02:50 040 12 5.4 7.0
2014-Apr-23 01:50 040 11 5.4 8.0
2014-Apr-23 00:50 030 11 5.4 7.0
2014-Apr-22 23:50 010 9 5.4 6.0
2014-Apr-22 22:50 350 8 5.4 6.0
2014-Apr-22 21:50 350 8 5.4 6.0
2014-Apr-22 20:50 350 7 5.4 7.0
2014-Apr-22 19:50 350 7 5.4 8.0
2014-Apr-22 18:50 350 8 5.410.0
2014-Apr-22 16:50 360 11 5.415.0
2014-Apr-22 15:50 010 11 5.418.0
2014-Apr-22 14:50 360 9 5.419.0
2014-Apr-22 13:50 20.0
2014-Apr-22 12:50 21.0
2014-Apr-22 11:50 20.0